createdAt,value
2022-08-18T00:00:50.472Z,95.13
2022-08-18T00:04:53.571Z,94.55
2022-08-18T00:09:00.761Z,94.87
2022-08-18T00:13:02.519Z,94.71
2022-08-18T00:17:04.360Z,95.16
2022-08-18T00:21:06.096Z,94.98
2022-08-18T00:25:10.433Z,95.60
2022-08-18T00:29:12.075Z,95.53
2022-08-18T00:33:13.809Z,95.71
2022-08-18T00:37:15.589Z,95.09
2022-08-18T00:41:17.940Z,95.68
2022-08-18T00:45:25.315Z,95.79
2022-08-18T00:49:27.027Z,95.98
2022-08-18T00:53:30.928Z,96.33
2022-08-18T00:57:33.163Z,96.08
2022-08-18T01:01:35.287Z,96.18
2022-08-18T01:05:43.538Z,96.07
2022-08-18T01:09:45.146Z,96.21
2022-08-18T01:13:46.795Z,96.60
2022-08-18T01:18:07.854Z,96.53
2022-08-18T01:22:42.560Z,96.46
2022-08-18T01:26:49.743Z,97.03
2022-08-18T01:30:58.122Z,97.02
2022-08-18T01:34:59.968Z,96.67
2022-08-18T01:39:01.670Z,96.82
2022-08-18T01:43:04.382Z,96.90
2022-08-18T01:47:06.257Z,96.82
2022-08-18T01:51:09.643Z,96.91
2022-08-18T01:55:11.283Z,97.39
2022-08-18T01:59:16.359Z,97.60
2022-08-18T02:03:18.083Z,97.85
2022-08-18T02:07:20.111Z,97.63
2022-08-18T02:11:22.183Z,97.58
2022-08-18T02:15:23.847Z,97.86
2022-08-18T02:19:25.806Z,98.07
2022-08-18T02:23:27.439Z,98.22
2022-08-18T02:27:29.855Z,98.45
2022-08-18T02:31:32.078Z,98.70
2022-08-18T02:35:34.155Z,98.79
2022-08-18T02:39:38.026Z,98.98
2022-08-18T02:43:42.105Z,99.02
2022-08-18T02:47:45.016Z,98.86
2022-08-18T02:51:46.706Z,98.62
2022-08-18T02:55:48.742Z,98.84
2022-08-18T02:59:50.464Z,98.95
2022-08-18T03:03:52.773Z,98.99
2022-08-18T03:07:55.399Z,99.10
2022-08-18T03:11:58.317Z,98.77
2022-08-18T03:15:59.963Z,98.76
2022-08-18T03:20:02.664Z,99.00
2022-08-18T03:24:09.304Z,99.08
2022-08-18T03:28:12.848Z,99.22
2022-08-18T03:32:14.560Z,98.70
2022-08-18T03:36:21.729Z,98.87
2022-08-18T03:40:23.553Z,98.97
2022-08-18T03:44:25.800Z,98.71
2022-08-18T03:48:27.425Z,98.90
2022-08-18T03:52:29.869Z,99.27
2022-08-18T03:56:34.980Z,99.37
2022-08-18T04:00:38.333Z,99.22
2022-08-18T04:04:43.017Z,100.00
2022-08-18T04:08:46.593Z,100.00
2022-08-18T04:12:49.698Z,99.75
2022-08-18T04:16:53.328Z,100.00
2022-08-18T04:20:59.344Z,99.91
2022-08-18T04:25:01.565Z,99.96
2022-08-18T04:29:04.907Z,100.00
2022-08-18T04:33:06.510Z,100.00
2022-08-18T04:37:09.702Z,100.00
2022-08-18T04:41:13.326Z,100.00
2022-08-18T04:45:14.935Z,100.00
2022-08-18T04:49:18.754Z,100.00
2022-08-18T04:53:38.915Z,100.00
2022-08-18T04:57:42.521Z,100.00
2022-08-18T05:01:47.522Z,100.00
2022-08-18T05:05:49.555Z,100.00
2022-08-18T05:09:54.979Z,100.00
2022-08-18T05:13:58.013Z,100.00
2022-08-18T05:17:59.612Z,100.00
2022-08-18T05:22:03.000Z,100.00
2022-08-18T05:26:05.767Z,100.00
2022-08-18T05:30:08.534Z,100.00
2022-08-18T05:34:10.221Z,100.00
2022-08-18T05:38:32.594Z,100.00
2022-08-18T05:42:39.559Z,100.00
2022-08-18T05:46:48.363Z,100.00
2022-08-18T05:50:51.257Z,100.00
2022-08-18T05:55:15.010Z,99.73
2022-08-18T05:59:22.682Z,98.74
2022-08-18T06:03:45.034Z,98.33
2022-08-18T06:08:00.804Z,97.63
2022-08-18T06:12:20.926Z,97.52
2022-08-18T06:16:50.315Z,97.07
2022-08-18T06:21:02.623Z,96.44
2022-08-18T06:25:16.516Z,95.92
2022-08-18T06:29:47.502Z,95.96
2022-08-18T06:34:01.078Z,95.99
2022-08-18T06:38:24.212Z,95.95
2022-08-18T06:42:31.202Z,95.46
2022-08-18T06:46:41.920Z,95.44
2022-08-18T06:50:53.563Z,95.42
2022-08-18T06:54:58.577Z,94.80
2022-08-18T06:59:21.367Z,94.60
2022-08-18T07:03:46.296Z,94.34
2022-08-18T07:08:30.588Z,93.97
2022-08-18T07:12:33.005Z,93.33
2022-08-18T07:16:57.048Z,92.75
2022-08-18T07:21:00.982Z,92.57
2022-08-18T07:25:05.619Z,91.86
2022-08-18T07:29:15.752Z,91.24
2022-08-18T07:33:22.704Z,90.81
2022-08-18T07:37:32.441Z,91.10
2022-08-18T07:41:44.582Z,90.35
2022-08-18T07:45:47.666Z,90.23
2022-08-18T07:50:15.613Z,89.78
2022-08-18T07:54:47.584Z,89.87
2022-08-18T07:59:15.025Z,89.16
2022-08-18T08:03:48.486Z,88.24
2022-08-18T08:07:58.004Z,87.95
2022-08-18T08:12:07.193Z,87.49
2022-08-18T08:16:37.753Z,87.77
2022-08-18T08:20:48.940Z,88.03
2022-08-18T08:25:34.866Z,87.96
2022-08-18T08:30:03.247Z,87.76
2022-08-18T08:34:19.645Z,87.38
2022-08-18T08:38:49.663Z,86.52
2022-08-18T08:43:01.105Z,85.57
2022-08-18T08:47:13.135Z,84.80
2022-08-18T08:51:22.000Z,84.31
2022-08-18T08:55:28.408Z,83.53
2022-08-18T08:59:30.042Z,83.78
2022-08-18T09:03:50.583Z,83.67
2022-08-18T09:08:07.354Z,82.55
2022-08-18T09:12:28.422Z,82.27
2022-08-18T09:16:52.679Z,81.07
2022-08-18T09:21:00.453Z,80.81
2022-08-18T09:25:02.628Z,79.44
2022-08-18T09:29:18.327Z,79.91
2022-08-18T09:33:25.900Z,78.94
2022-08-18T09:37:39.103Z,78.26
2022-08-18T09:41:56.966Z,77.38
2022-08-18T09:46:00.915Z,77.38
2022-08-18T09:50:05.383Z,77.31
2022-08-18T09:54:13.485Z,77.16
2022-08-18T09:58:25.802Z,76.80
2022-08-18T10:02:30.262Z,76.92
2022-08-18T10:06:32.007Z,76.90
2022-08-18T10:15:34.058Z,77.04
2022-08-18T10:20:26.712Z,76.50
2022-08-18T10:24:34.983Z,77.03
2022-08-18T10:28:59.160Z,75.80
2022-08-18T10:33:17.265Z,75.76
2022-08-18T10:37:31.847Z,75.69
2022-08-18T10:41:37.008Z,75.22
2022-08-18T10:46:24.380Z,75.02
2022-08-18T10:50:21.386Z,74.65
2022-08-18T10:55:10.306Z,74.69
2022-08-18T10:59:49.234Z,73.98
2022-08-18T11:04:33.863Z,73.87
2022-08-18T11:08:47.814Z,73.18
2022-08-18T11:13:09.235Z,72.84
2022-08-18T11:17:27.360Z,73.11
2022-08-18T11:21:32.653Z,72.49
2022-08-18T11:25:39.699Z,72.42
2022-08-18T11:29:43.088Z,72.40
2022-08-18T11:33:44.707Z,72.58
2022-08-18T11:37:59.875Z,71.89
2022-08-18T11:42:01.862Z,71.83
2022-08-18T11:46:29.649Z,71.42
2022-08-18T11:50:34.975Z,71.51
2022-08-18T11:54:50.842Z,71.17
2022-08-18T11:58:58.839Z,71.36
2022-08-18T12:03:06.297Z,70.99
2022-08-18T12:11:50.818Z,70.59
2022-08-18T12:16:16.603Z,70.06
2022-08-18T12:20:18.971Z,70.43
2022-08-18T12:24:36.745Z,70.34
2022-08-18T12:28:41.985Z,70.46
2022-08-18T12:32:49.930Z,70.25
2022-08-18T12:36:55.520Z,70.32
2022-08-18T12:40:57.554Z,70.50
2022-08-18T12:44:59.454Z,70.32
2022-08-18T12:49:03.868Z,69.54
2022-08-18T12:53:07.411Z,69.39
2022-08-18T12:57:21.932Z,68.78
2022-08-18T13:01:38.082Z,68.34
2022-08-18T13:05:41.564Z,67.97
2022-08-18T13:09:52.651Z,67.33
2022-08-18T13:13:57.208Z,67.64
2022-08-18T13:17:59.123Z,67.86
2022-08-18T13:22:00.922Z,67.33
2022-08-18T13:26:05.006Z,67.03
2022-08-18T13:30:30.597Z,66.43
2022-08-18T13:34:33.647Z,66.01
2022-08-18T13:38:35.361Z,65.68
2022-08-18T13:42:50.606Z,65.61
2022-08-18T13:46:55.519Z,65.15
2022-08-18T13:50:59.993Z,65.21
2022-08-18T13:55:08.300Z,65.73
2022-08-18T13:59:10.333Z,66.54
2022-08-18T14:03:13.915Z,67.47
2022-08-18T14:07:32.535Z,67.68
2022-08-18T14:11:37.804Z,67.81
2022-08-18T14:15:47.193Z,68.08
2022-08-18T14:20:15.413Z,68.57
2022-08-18T14:24:42.689Z,69.52
2022-08-18T14:28:50.691Z,70.76
2022-08-18T14:32:54.697Z,71.33
2022-08-18T14:36:59.845Z,72.30
2022-08-18T14:41:04.225Z,73.17
2022-08-18T14:45:26.387Z,74.49
2022-08-18T14:49:36.167Z,75.38
2022-08-18T14:53:51.295Z,75.08
2022-08-18T14:57:54.607Z,76.03
2022-08-18T15:01:57.715Z,76.10
2022-08-18T15:06:04.767Z,76.30
2022-08-18T15:10:14.864Z,76.82
2022-08-18T15:14:18.733Z,76.95
2022-08-18T15:18:22.529Z,76.13
2022-08-18T15:22:56.659Z,76.03
2022-08-18T15:35:29.246Z,74.64
2022-08-18T15:39:32.458Z,74.59
2022-08-18T15:43:34.501Z,74.52
2022-08-18T15:47:43.743Z,74.08
2022-08-18T15:51:48.314Z,74.12
2022-08-18T15:55:51.900Z,73.90
2022-08-18T15:59:53.532Z,73.73
2022-08-18T16:03:55.274Z,73.01
2022-08-18T16:07:58.686Z,72.90
2022-08-18T16:12:00.615Z,72.51
2022-08-18T16:16:09.873Z,72.05
2022-08-18T16:20:12.551Z,71.75
2022-08-18T16:24:17.849Z,71.82
2022-08-18T16:28:19.923Z,71.02
2022-08-18T16:32:21.558Z,70.76
2022-08-18T16:36:25.540Z,71.14
2022-08-18T16:40:28.023Z,70.86
2022-08-18T16:44:32.749Z,70.60
2022-08-18T16:48:34.813Z,70.40
2022-08-18T16:52:36.634Z,70.78
2022-08-18T16:56:38.311Z,70.92
2022-08-18T17:00:59.036Z,71.19
2022-08-18T17:05:02.760Z,71.19
2022-08-18T17:09:10.116Z,71.57
2022-08-18T17:13:11.859Z,70.97
2022-08-18T17:17:13.549Z,71.41
2022-08-18T17:21:21.142Z,71.16
2022-08-18T17:25:24.496Z,70.48
2022-08-18T17:29:31.270Z,71.05
2022-08-18T17:33:37.548Z,71.22
2022-08-18T17:37:49.306Z,71.47
2022-08-18T17:42:09.257Z,71.62
2022-08-18T17:46:27.572Z,72.10
2022-08-18T17:51:00.131Z,72.10
2022-08-18T17:55:16.312Z,72.70
2022-08-18T17:59:51.187Z,72.45
2022-08-18T18:03:53.820Z,72.95
2022-08-18T18:07:58.760Z,73.05
2022-08-18T18:12:22.735Z,73.06
2022-08-18T18:16:35.385Z,73.39
2022-08-18T18:20:41.417Z,73.63
2022-08-18T18:24:51.186Z,73.74
2022-08-18T18:29:12.094Z,73.69
2022-08-18T18:33:16.077Z,74.30
2022-08-18T18:37:27.119Z,74.22
2022-08-18T18:41:28.786Z,74.54
2022-08-18T18:45:31.222Z,74.15
2022-08-18T18:49:58.484Z,74.53
2022-08-18T18:54:07.254Z,74.78
2022-08-18T18:58:37.354Z,74.34
2022-08-18T19:02:48.940Z,74.82
2022-08-18T19:07:03.499Z,75.07
2022-08-18T19:11:22.895Z,75.39
2022-08-18T19:15:25.843Z,75.61
2022-08-18T19:19:39.074Z,75.62
2022-08-18T19:24:05.060Z,76.23
2022-08-18T19:28:18.792Z,76.59
2022-08-18T19:32:36.738Z,76.95
2022-08-18T19:36:51.897Z,77.10
2022-08-18T19:41:03.353Z,77.06
2022-08-18T19:45:30.032Z,77.19
2022-08-18T19:50:11.117Z,78.21
2022-08-18T19:54:12.717Z,78.07
2022-08-18T19:58:32.359Z,78.12
2022-08-18T20:02:38.092Z,78.34
2022-08-18T20:06:51.727Z,78.67
2022-08-18T20:11:41.995Z,78.79
2022-08-18T20:16:10.737Z,78.63
2022-08-18T20:20:18.264Z,78.96
2022-08-18T20:24:38.672Z,79.25
2022-08-18T20:28:40.660Z,79.25
2022-08-18T20:32:42.327Z,79.27
2022-08-18T20:36:46.950Z,78.96
2022-08-18T20:40:51.146Z,79.27
2022-08-18T20:45:13.653Z,79.24
2022-08-18T20:49:23.950Z,79.86
2022-08-18T20:53:55.465Z,79.71
2022-08-18T20:58:15.626Z,79.36
2022-08-18T21:02:29.593Z,79.62
2022-08-18T21:06:44.518Z,80.28
2022-08-18T21:10:54.775Z,80.45
2022-08-18T21:14:59.592Z,80.40
2022-08-18T21:19:14.427Z,81.28
2022-08-18T21:23:24.729Z,81.63
2022-08-18T21:27:36.089Z,82.13
2022-08-18T21:31:44.370Z,82.47
2022-08-18T21:35:46.661Z,82.82
2022-08-18T21:39:48.269Z,83.31
2022-08-18T21:43:56.135Z,83.99
2022-08-18T21:47:58.857Z,84.88
2022-08-18T21:52:00.928Z,84.25
2022-08-18T21:56:02.607Z,84.41
2022-08-18T22:00:35.272Z,85.02
2022-08-18T22:04:47.200Z,85.05
2022-08-18T22:09:20.601Z,85.52
2022-08-18T22:13:43.880Z,85.96
2022-08-18T22:17:56.813Z,86.06
2022-08-18T22:22:22.056Z,86.71
2022-08-18T22:26:29.214Z,86.72
2022-08-18T22:30:30.946Z,87.08
2022-08-18T22:34:34.386Z,86.99
2022-08-18T22:38:36.281Z,87.26
2022-08-18T22:42:39.020Z,87.56
2022-08-18T22:46:40.653Z,87.97
2022-08-18T22:50:44.862Z,88.10
2022-08-18T22:54:46.621Z,87.73
2022-08-18T22:58:51.607Z,87.93
2022-08-18T23:02:55.012Z,87.99
2022-08-18T23:06:56.828Z,87.91
2022-08-18T23:10:58.486Z,88.02
2022-08-18T23:15:06.683Z,87.78
2022-08-18T23:19:08.300Z,87.21
2022-08-18T23:23:09.959Z,87.32
2022-08-18T23:27:11.662Z,87.02
2022-08-18T23:31:14.355Z,87.03
2022-08-18T23:35:16.050Z,87.02
2022-08-18T23:39:17.971Z,87.50
2022-08-18T23:43:20.307Z,87.83
2022-08-18T23:47:21.962Z,88.13
2022-08-18T23:51:33.034Z,88.05
2022-08-18T23:55:34.667Z,88.70
2022-08-18T23:59:36.621Z,88.72
